Gallant, AL (35972)

6:45 PM CST on February 12, 2016 (GMT -0600)
Gadsden Municipal | | Change Station
CLOSE
Current Station
Airport
Location: Gadsden,
Elevation: 568 ft
Nearby Weather Stations

Elev 568 ft 33.97 °N, 86.09 °W | Updated 49 minutes ago

Clear
Clear
52 °F
Feels Like 52 °F
N
9
Wind Variable Wind from NW

Today
High -- | Low -- °F
--% Chance of Precip.
Yesterday
High -- | Low -- °F
Precip. -- in
Pressure 30.24 in
Visibility 10.0 miles
Clouds Clear
Dew Point 30 °F
Humidity 43%
Rainfall 0.00 in
Snow Depth Not available.
6:33 AM 5:25 PM
Waxing Crescent, 25% visible
METAR KGAD 122356Z AUTO 31008KT 10SM CLR 11/M01 A3017 RMK AO2 SLP238 T01111011 10167 20111 53025
Pressure 30.24 in
Visibility 10.0 miles
Clouds Clear
Dew Point 30 °F
Humidity 43%
Rainfall 0.00 in
Snow Depth Not available.
6:33 AM 5:25 PM
Waxing Crescent, 25% visible
METAR KGAD 122356Z AUTO 31008KT 10SM CLR 11/M01 A3017 RMK AO2 SLP238 T01111011 10167 20111 53025

10-Day Weather Forecast

Almanac

Astronomy

Feb. 12, 2016 Rise Set
Actual Time
Civil Twilight
Nautical Twilight
Astronomical Twilight
Moon
Length of Visible Light
Length of Day
Tomorrow will be .
, % of the Moon is Illuminated

Today's Extremes

State Highs State Lows

Community

WunderPhotos

Upload Photos

1,892,444 photos uploaded!

WunderBlog® & News

Nearby

Air Quality

  Air Quality AQ Index Pollutant
Not available.

Snow Depth

Station Depth Elevation

Earthquake Activity

City Distance Mag. Time & Date
Minimum magnitude displayed is 2.5.

Coastal Water Temperatures

Place Temperature

Stations

Nearby Weather Stations

Station Location Temp. Windchill Dew Point Humidity Wind Precip. Elev Updated Type
                   

Watches & Warnings

There are currently no watches in effect.